sensor_id;sensor_type;location;lat;lon;timestamp;P1;durP1;ratioP1;P2;durP2;ratioP2
54515;SDS011;40422;45.892;4.738;2023-04-03T03:01:45;0.73;;;0.60;;
54515;SDS011;40422;45.892;4.738;2023-04-03T03:04:11;0.63;;;0.60;;
54515;SDS011;40422;45.892;4.738;2023-04-03T03:06:36;1.25;;;0.70;;
54515;SDS011;40422;45.892;4.738;2023-04-03T03:09:02;1.20;;;0.85;;
54515;SDS011;40422;45.892;4.738;2023-04-03T03:11:28;1.27;;;0.50;;
54515;SDS011;40422;45.892;4.738;2023-04-03T03:13:54;1.67;;;0.70;;
54515;SDS011;40422;45.892;4.738;2023-04-03T03:16:20;1.90;;;0.77;;
54515;SDS011;40422;45.892;4.738;2023-04-03T03:18:45;1.00;;;0.70;;
54515;SDS011;40422;45.892;4.738;2023-04-03T03:21:11;1.83;;;0.70;;
54515;SDS011;40422;45.892;4.738;2023-04-03T03:23:37;1.00;;;0.70;;
54515;SDS011;40422;45.892;4.738;2023-04-03T03:26:03;1.65;;;0.90;;
54515;SDS011;40422;45.892;4.738;2023-04-03T03:28:30;1.23;;;0.88;;
54515;SDS011;40422;45.892;4.738;2023-04-03T03:30:57;2.17;;;1.10;;
54515;SDS011;40422;45.892;4.738;2023-04-03T03:33:23;2.03;;;1.15;;
54515;SDS011;40422;45.892;4.738;2023-04-03T03:35:49;3.10;;;1.65;;
54515;SDS011;40422;45.892;4.738;2023-04-03T03:38:14;2.13;;;1.20;;
54515;SDS011;40422;45.892;4.738;2023-04-03T03:40:40;3.22;;;1.60;;
54515;SDS011;40422;45.892;4.738;2023-04-03T03:43:06;3.80;;;1.63;;
54515;SDS011;40422;45.892;4.738;2023-04-03T03:45:31;4.68;;;1.90;;
54515;SDS011;40422;45.892;4.738;2023-04-03T03:47:57;4.63;;;2.13;;
54515;SDS011;40422;45.892;4.738;2023-04-03T03:50:23;3.72;;;2.05;;
54515;SDS011;40422;45.892;4.738;2023-04-03T03:52:48;4.05;;;2.10;;
54515;SDS011;40422;45.892;4.738;2023-04-03T03:55:14;4.60;;;2.25;;
54515;SDS011;40422;45.892;4.738;2023-04-03T03:57:40;4.78;;;2.40;;
54515;SDS011;40422;45.892;4.738;2023-04-03T04:00:06;5.43;;;2.70;;
54515;SDS011;40422;45.892;4.738;2023-04-03T04:02:32;4.05;;;2.28;;
54515;SDS011;40422;45.892;4.738;2023-04-03T04:04:58;5.20;;;2.50;;
54515;SDS011;40422;45.892;4.738;2023-04-03T04:07:23;4.57;;;2.30;;
54515;SDS011;40422;45.892;4.738;2023-04-03T04:09:49;5.40;;;2.90;;
54515;SDS011;40422;45.892;4.738;2023-04-03T04:12:15;4.97;;;2.65;;
54515;SDS011;40422;45.892;4.738;2023-04-03T04:14:41;6.32;;;2.80;;
54515;SDS011;40422;45.892;4.738;2023-04-03T04:17:06;5.10;;;2.33;;
54515;SDS011;40422;45.892;4.738;2023-04-03T04:19:32;4.93;;;2.58;;
54515;SDS011;40422;45.892;4.738;2023-04-03T04:21:58;5.55;;;3.00;;
54515;SDS011;40422;45.892;4.738;2023-04-03T04:24:23;5.13;;;2.58;;
54515;SDS011;40422;45.892;4.738;2023-04-03T04:26:49;4.93;;;2.60;;
54515;SDS011;40422;45.892;4.738;2023-04-03T04:29:17;5.15;;;2.33;;
54515;SDS011;40422;45.892;4.738;2023-04-03T04:31:43;4.78;;;2.45;;
54515;SDS011;40422;45.892;4.738;2023-04-03T04:34:09;4.00;;;2.30;;
54515;SDS011;40422;45.892;4.738;2023-04-03T04:36:35;5.55;;;2.63;;
54515;SDS011;40422;45.892;4.738;2023-04-03T04:39:00;5.43;;;2.70;;
54515;SDS011;40422;45.892;4.738;2023-04-03T04:41:26;6.30;;;2.80;;
54515;SDS011;40422;45.892;4.738;2023-04-03T04:43:52;5.95;;;2.67;;
54515;SDS011;40422;45.892;4.738;2023-04-03T04:46:18;5.07;;;2.50;;
54515;SDS011;40422;45.892;4.738;2023-04-03T04:48:44;6.60;;;2.70;;
54515;SDS011;40422;45.892;4.738;2023-04-03T04:51:10;4.45;;;2.35;;
54515;SDS011;40422;45.892;4.738;2023-04-03T04:53:36;4.05;;;2.08;;
54515;SDS011;40422;45.892;4.738;2023-04-03T04:56:02;4.25;;;2.33;;
54515;SDS011;40422;45.892;4.738;2023-04-03T04:58:28;2.90;;;1.73;;
54515;SDS011;40422;45.892;4.738;2023-04-03T05:00:59;3.97;;;2.10;;
54515;SDS011;40422;45.892;4.738;2023-04-03T05:03:29;3.22;;;1.67;;
54515;SDS011;40422;45.892;4.738;2023-04-03T05:05:55;3.97;;;1.98;;
54515;SDS011;40422;45.892;4.738;2023-04-03T05:08:21;4.40;;;2.30;;
54515;SDS011;40422;45.892;4.738;2023-04-03T05:10:47;5.50;;;2.92;;
54515;SDS011;40422;45.892;4.738;2023-04-03T05:13:13;5.03;;;2.40;;
54515;SDS011;40422;45.892;4.738;2023-04-03T05:15:38;6.50;;;3.38;;
54515;SDS011;40422;45.892;4.738;2023-04-03T05:18:04;7.10;;;3.47;;
54515;SDS011;40422;45.892;4.738;2023-04-03T05:20:30;6.93;;;3.80;;
54515;SDS011;40422;45.892;4.738;2023-04-03T05:22:57;6.63;;;3.63;;
54515;SDS011;40422;45.892;4.738;2023-04-03T05:25:22;6.93;;;3.60;;
54515;SDS011;40422;45.892;4.738;2023-04-03T05:27:48;9.50;;;5.32;;
54515;SDS011;40422;45.892;4.738;2023-04-03T05:30:14;10.05;;;5.60;;
54515;SDS011;40422;45.892;4.738;2023-04-03T05:32:41;10.13;;;5.95;;
54515;SDS011;40422;45.892;4.738;2023-04-03T05:35:07;11.02;;;6.63;;
54515;SDS011;40422;45.892;4.738;2023-04-03T05:37:33;13.10;;;8.48;;
54515;SDS011;40422;45.892;4.738;2023-04-03T05:40:00;13.38;;;8.43;;
54515;SDS011;40422;45.892;4.738;2023-04-03T05:42:25;12.80;;;8.70;;
54515;SDS011;40422;45.892;4.738;2023-04-03T05:44:51;13.43;;;9.05;;
54515;SDS011;40422;45.892;4.738;2023-04-03T05:47:17;14.05;;;9.00;;
54515;SDS011;40422;45.892;4.738;2023-04-03T05:49:43;15.45;;;10.38;;
54515;SDS011;40422;45.892;4.738;2023-04-03T05:54:52;14.73;;;8.95;;
54515;SDS011;40422;45.892;4.738;2023-04-03T05:57:18;15.48;;;9.63;;
54515;SDS011;40422;45.892;4.738;2023-04-03T05:59:44;13.68;;;8.02;;
54515;SDS011;40422;45.892;4.738;2023-04-03T06:02:16;14.48;;;9.70;;
54515;SDS011;40422;45.892;4.738;2023-04-03T06:04:44;17.50;;;10.68;;
54515;SDS011;40422;45.892;4.738;2023-04-03T06:07:16;17.00;;;11.10;;
54515;SDS011;40422;45.892;4.738;2023-04-03T06:09:44;15.48;;;10.32;;
54515;SDS011;40422;45.892;4.738;2023-04-03T06:12:10;15.43;;;10.48;;
54515;SDS011;40422;45.892;4.738;2023-04-03T06:14:36;15.80;;;9.23;;
54515;SDS011;40422;45.892;4.738;2023-04-03T06:17:02;14.48;;;8.88;;
54515;SDS011;40422;45.892;4.738;2023-04-03T06:19:29;13.95;;;8.02;;
54515;SDS011;40422;45.892;4.738;2023-04-03T06:21:55;14.27;;;9.48;;
54515;SDS011;40422;45.892;4.738;2023-04-03T06:24:21;11.95;;;8.15;;
54515;SDS011;40422;45.892;4.738;2023-04-03T06:26:48;13.65;;;8.52;;
54515;SDS011;40422;45.892;4.738;2023-04-03T06:29:16;13.48;;;8.52;;
54515;SDS011;40422;45.892;4.738;2023-04-03T06:31:42;13.95;;;8.77;;
54515;SDS011;40422;45.892;4.738;2023-04-03T06:34:08;12.68;;;8.05;;
54515;SDS011;40422;45.892;4.738;2023-04-03T06:36:35;13.45;;;8.55;;
54515;SDS011;40422;45.892;4.738;2023-04-03T06:39:02;12.43;;;8.27;;
54515;SDS011;40422;45.892;4.738;2023-04-03T06:41:29;13.35;;;8.43;;
54515;SDS011;40422;45.892;4.738;2023-04-03T06:43:55;16.20;;;8.73;;
54515;SDS011;40422;45.892;4.738;2023-04-03T06:46:22;12.20;;;7.75;;
54515;SDS011;40422;45.892;4.738;2023-04-03T06:48:48;13.82;;;8.65;;
54515;SDS011;40422;45.892;4.738;2023-04-03T06:53:49;14.10;;;8.95;;
54515;SDS011;40422;45.892;4.738;2023-04-03T06:56:16;12.68;;;7.95;;
54515;SDS011;40422;45.892;4.738;2023-04-03T06:58:42;17.13;;;8.10;;
54515;SDS011;40422;45.892;4.738;2023-04-03T07:01:10;12.68;;;7.45;;
54515;SDS011;40422;45.892;4.738;2023-04-03T07:03:38;12.38;;;8.00;;
54515;SDS011;40422;45.892;4.738;2023-04-03T07:06:04;15.68;;;9.05;;
54515;SDS011;40422;45.892;4.738;2023-04-03T07:08:32;14.93;;;8.30;;
54515;SDS011;40422;45.892;4.738;2023-04-03T07:10:58;15.10;;;8.80;;
54515;SDS011;40422;45.892;4.738;2023-04-03T07:13:24;14.88;;;8.38;;
54515;SDS011;40422;45.892;4.738;2023-04-03T07:15:51;14.15;;;8.40;;
54515;SDS011;40422;45.892;4.738;2023-04-03T07:18:17;13.35;;;8.50;;
54515;SDS011;40422;45.892;4.738;2023-04-03T07:20:43;13.32;;;8.20;;
54515;SDS011;40422;45.892;4.738;2023-04-03T07:23:09;15.00;;;8.80;;
54515;SDS011;40422;45.892;4.738;2023-04-03T07:25:35;13.55;;;8.15;;
54515;SDS011;40422;45.892;4.738;2023-04-03T07:28:02;13.23;;;8.18;;
54515;SDS011;40422;45.892;4.738;2023-04-03T07:30:28;13.38;;;7.38;;
54515;SDS011;40422;45.892;4.738;2023-04-03T07:32:54;11.95;;;7.47;;
54515;SDS011;40422;45.892;4.738;2023-04-03T07:35:20;14.05;;;7.60;;
54515;SDS011;40422;45.892;4.738;2023-04-03T07:37:46;15.48;;;8.15;;
54515;SDS011;40422;45.892;4.738;2023-04-03T07:40:12;14.82;;;7.63;;
54515;SDS011;40422;45.892;4.738;2023-04-03T07:42:37;14.25;;;7.18;;
54515;SDS011;40422;45.892;4.738;2023-04-03T07:45:03;13.95;;;7.22;;
54515;SDS011;40422;45.892;4.738;2023-04-03T07:47:29;11.80;;;6.60;;
54515;SDS011;40422;45.892;4.738;2023-04-03T07:49:56;13.27;;;7.03;;
54515;SDS011;40422;45.892;4.738;2023-04-03T07:52:22;13.05;;;7.05;;
54515;SDS011;40422;45.892;4.738;2023-04-03T07:54:48;12.48;;;7.13;;
54515;SDS011;40422;45.892;4.738;2023-04-03T07:57:13;12.52;;;7.57;;
54515;SDS011;40422;45.892;4.738;2023-04-03T07:59:39;12.25;;;7.78;;
54515;SDS011;40422;45.892;4.738;2023-04-03T08:02:08;12.55;;;7.68;;
54515;SDS011;40422;45.892;4.738;2023-04-03T08:04:34;12.20;;;7.97;;
54515;SDS011;40422;45.892;4.738;2023-04-03T08:07:00;12.38;;;7.95;;
54515;SDS011;40422;45.892;4.738;2023-04-03T08:09:26;12.32;;;7.25;;
54515;SDS011;40422;45.892;4.738;2023-04-03T08:11:51;11.02;;;6.53;;
54515;SDS011;40422;45.892;4.738;2023-04-03T08:14:18;11.57;;;7.05;;
54515;SDS011;40422;45.892;4.738;2023-04-03T08:16:45;12.65;;;6.75;;
54515;SDS011;40422;45.892;4.738;2023-04-03T08:19:14;11.88;;;7.30;;
54515;SDS011;40422;45.892;4.738;2023-04-03T08:21:43;13.52;;;7.53;;
54515;SDS011;40422;45.892;4.738;2023-04-03T08:24:09;25.15;;;6.75;;
54515;SDS011;40422;45.892;4.738;2023-04-03T08:26:35;11.07;;;6.47;;
54515;SDS011;40422;45.892;4.738;2023-04-03T08:29:01;11.52;;;6.43;;
54515;SDS011;40422;45.892;4.738;2023-04-03T08:31:27;12.13;;;6.30;;
54515;SDS011;40422;45.892;4.738;2023-04-03T08:33:53;10.60;;;5.80;;
54515;SDS011;40422;45.892;4.738;2023-04-03T08:36:20;10.85;;;7.32;;
54515;SDS011;40422;45.892;4.738;2023-04-03T08:38:48;13.38;;;7.50;;
54515;SDS011;40422;45.892;4.738;2023-04-03T08:41:16;11.90;;;7.05;;
54515;SDS011;40422;45.892;4.738;2023-04-03T08:49:29;10.88;;;6.93;;
54515;SDS011;40422;45.892;4.738;2023-04-03T08:51:59;11.30;;;6.97;;
54515;SDS011;40422;45.892;4.738;2023-04-03T08:57:00;11.73;;;6.95;;
54515;SDS011;40422;45.892;4.738;2023-04-03T08:59:32;10.63;;;6.38;;
54515;SDS011;40422;45.892;4.738;2023-04-03T09:02:01;11.82;;;6.53;;
54515;SDS011;40422;45.892;4.738;2023-04-03T09:04:32;9.75;;;6.05;;
54515;SDS011;40422;45.892;4.738;2023-04-03T09:07:02;11.77;;;6.97;;
54515;SDS011;40422;45.892;4.738;2023-04-03T09:09:35;10.93;;;6.20;;
54515;SDS011;40422;45.892;4.738;2023-04-03T09:23:18;13.23;;;8.05;;
54515;SDS011;40422;45.892;4.738;2023-04-03T09:25:48;10.25;;;6.28;;
54515;SDS011;40422;45.892;4.738;2023-04-03T09:28:16;11.52;;;6.18;;
54515;SDS011;40422;45.892;4.738;2023-04-03T09:30:41;16.50;;;6.95;;
54515;SDS011;40422;45.892;4.738;2023-04-03T09:33:07;9.82;;;6.05;;
54515;SDS011;40422;45.892;4.738;2023-04-03T09:35:36;10.00;;;6.03;;
54515;SDS011;40422;45.892;4.738;2023-04-03T09:40:38;10.30;;;5.88;;
54515;SDS011;40422;45.892;4.738;2023-04-03T09:45:43;9.70;;;6.05;;
54515;SDS011;40422;45.892;4.738;2023-04-03T09:50:56;10.02;;;5.88;;
54515;SDS011;40422;45.892;4.738;2023-04-03T09:53:43;9.82;;;5.70;;
54515;SDS011;40422;45.892;4.738;2023-04-03T09:58:40;9.20;;;5.60;;
54515;SDS011;40422;45.892;4.738;2023-04-03T10:01:29;10.32;;;5.15;;
54515;SDS011;40422;45.892;4.738;2023-04-03T10:06:45;9.38;;;5.28;;
54515;SDS011;40422;45.892;4.738;2023-04-03T10:12:09;10.03;;;5.40;;
54515;SDS011;40422;45.892;4.738;2023-04-03T10:14:42;8.65;;;5.30;;
54515;SDS011;40422;45.892;4.738;2023-04-03T10:25:34;9.75;;;5.15;;
54515;SDS011;40422;45.892;4.738;2023-04-03T10:38:33;10.93;;;5.95;;
54515;SDS011;40422;45.892;4.738;2023-04-03T10:41:15;11.15;;;5.60;;
54515;SDS011;40422;45.892;4.738;2023-04-03T10:43:58;9.63;;;5.38;;
54515;SDS011;40422;45.892;4.738;2023-04-03T10:46:38;8.95;;;5.03;;
54515;SDS011;40422;45.892;4.738;2023-04-03T10:49:21;8.05;;;4.70;;
54515;SDS011;40422;45.892;4.738;2023-04-03T10:52:06;7.85;;;4.50;;
54515;SDS011;40422;45.892;4.738;2023-04-03T10:57:32;7.45;;;4.68;;
54515;SDS011;40422;45.892;4.738;2023-04-03T11:00:01;8.10;;;4.30;;
54515;SDS011;40422;45.892;4.738;2023-04-03T11:02:39;8.40;;;4.88;;
54515;SDS011;40422;45.892;4.738;2023-04-03T11:05:18;8.43;;;4.95;;
54515;SDS011;40422;45.892;4.738;2023-04-03T11:07:53;9.02;;;4.72;;
54515;SDS011;40422;45.892;4.738;2023-04-03T11:13:09;8.57;;;4.30;;
54515;SDS011;40422;45.892;4.738;2023-04-03T11:15:38;11.05;;;5.03;;
54515;SDS011;40422;45.892;4.738;2023-04-03T11:18:06;8.27;;;4.78;;
54515;SDS011;40422;45.892;4.738;2023-04-03T11:20:37;8.07;;;4.20;;
54515;SDS011;40422;45.892;4.738;2023-04-03T11:23:08;9.50;;;4.65;;
54515;SDS011;40422;45.892;4.738;2023-04-03T11:25:44;7.95;;;4.47;;
54515;SDS011;40422;45.892;4.738;2023-04-03T11:28:15;8.00;;;4.20;;
54515;SDS011;40422;45.892;4.738;2023-04-03T11:33:28;9.35;;;5.18;;
54515;SDS011;40422;45.892;4.738;2023-04-03T11:36:05;9.63;;;4.45;;
54515;SDS011;40422;45.892;4.738;2023-04-03T11:38:38;8.98;;;4.63;;
54515;SDS011;40422;45.892;4.738;2023-04-03T11:41:08;6.97;;;3.70;;
54515;SDS011;40422;45.892;4.738;2023-04-03T11:43:40;8.15;;;3.80;;
54515;SDS011;40422;45.892;4.738;2023-04-03T11:46:07;7.63;;;4.10;;
54515;SDS011;40422;45.892;4.738;2023-04-03T11:53:38;9.02;;;3.78;;
54515;SDS011;40422;45.892;4.738;2023-04-03T12:01:47;6.88;;;3.38;;
54515;SDS011;40422;45.892;4.738;2023-04-03T12:04:14;8.02;;;3.40;;
54515;SDS011;40422;45.892;4.738;2023-04-03T12:09:25;6.82;;;3.33;;
54515;SDS011;40422;45.892;4.738;2023-04-03T12:14:53;5.75;;;3.05;;
54515;SDS011;40422;45.892;4.738;2023-04-03T12:17:20;6.15;;;3.25;;
54515;SDS011;40422;45.892;4.738;2023-04-03T12:19:51;11.32;;;3.22;;
54515;SDS011;40422;45.892;4.738;2023-04-03T12:22:17;8.30;;;3.10;;
54515;SDS011;40422;45.892;4.738;2023-04-03T12:24:46;5.93;;;3.25;;
54515;SDS011;40422;45.892;4.738;2023-04-03T12:27:20;5.55;;;3.13;;
54515;SDS011;40422;45.892;4.738;2023-04-03T12:29:49;5.30;;;2.80;;
54515;SDS011;40422;45.892;4.738;2023-04-03T12:32:35;6.40;;;3.15;;
54515;SDS011;40422;45.892;4.738;2023-04-03T12:35:37;5.07;;;2.88;;
54515;SDS011;40422;45.892;4.738;2023-04-03T12:38:25;8.02;;;3.03;;
54515;SDS011;40422;45.892;4.738;2023-04-03T12:41:04;6.53;;;3.15;;
54515;SDS011;40422;45.892;4.738;2023-04-03T12:46:15;7.75;;;3.25;;
54515;SDS011;40422;45.892;4.738;2023-04-03T12:48:51;6.05;;;2.65;;
54515;SDS011;40422;45.892;4.738;2023-04-03T12:54:02;5.70;;;2.35;;
54515;SDS011;40422;45.892;4.738;2023-04-03T12:56:37;6.13;;;2.65;;
54515;SDS011;40422;45.892;4.738;2023-04-03T13:01:54;4.93;;;2.78;;
54515;SDS011;40422;45.892;4.738;2023-04-03T13:04:20;4.90;;;2.50;;
54515;SDS011;40422;45.892;4.738;2023-04-03T13:06:46;5.32;;;2.78;;
54515;SDS011;40422;45.892;4.738;2023-04-03T13:11:43;6.35;;;2.75;;
54515;SDS011;40422;45.892;4.738;2023-04-03T13:14:16;5.75;;;2.58;;
54515;SDS011;40422;45.892;4.738;2023-04-03T13:16:42;4.53;;;2.25;;
54515;SDS011;40422;45.892;4.738;2023-04-03T13:19:17;4.57;;;2.40;;
54515;SDS011;40422;45.892;4.738;2023-04-03T13:21:43;5.68;;;2.35;;
54515;SDS011;40422;45.892;4.738;2023-04-03T13:24:10;3.72;;;2.20;;
54515;SDS011;40422;45.892;4.738;2023-04-03T13:26:39;4.80;;;2.15;;
54515;SDS011;40422;45.892;4.738;2023-04-03T13:29:06;3.20;;;1.70;;
54515;SDS011;40422;45.892;4.738;2023-04-03T13:31:42;3.30;;;1.92;;
54515;SDS011;40422;45.892;4.738;2023-04-03T13:34:18;4.30;;;2.05;;
54515;SDS011;40422;45.892;4.738;2023-04-03T13:41:46;3.92;;;2.05;;
54515;SDS011;40422;45.892;4.738;2023-04-03T13:44:24;3.58;;;1.90;;
54515;SDS011;40422;45.892;4.738;2023-04-03T13:50:01;3.67;;;1.90;;
54515;SDS011;40422;45.892;4.738;2023-04-03T13:55:26;4.60;;;1.70;;
54515;SDS011;40422;45.892;4.738;2023-04-03T13:58:03;4.88;;;2.03;;
54515;SDS011;40422;45.892;4.738;2023-04-03T14:00:48;4.25;;;1.75;;
54515;SDS011;40422;45.892;4.738;2023-04-03T14:03:27;5.45;;;1.65;;
54515;SDS011;40422;45.892;4.738;2023-04-03T14:05:55;3.30;;;1.50;;
54515;SDS011;40422;45.892;4.738;2023-04-03T14:08:22;3.15;;;1.77;;
54515;SDS011;40422;45.892;4.738;2023-04-03T14:10:48;2.38;;;1.50;;
54515;SDS011;40422;45.892;4.738;2023-04-03T14:13:15;3.10;;;1.67;;
54515;SDS011;40422;45.892;4.738;2023-04-03T14:15:42;3.75;;;1.90;;
54515;SDS011;40422;45.892;4.738;2023-04-03T14:18:12;4.80;;;1.90;;
54515;SDS011;40422;45.892;4.738;2023-04-03T14:20:39;3.83;;;1.90;;
54515;SDS011;40422;45.892;4.738;2023-04-03T14:23:05;3.58;;;1.65;;
54515;SDS011;40422;45.892;4.738;2023-04-03T14:25:31;3.05;;;1.60;;
54515;SDS011;40422;45.892;4.738;2023-04-03T14:27:57;2.92;;;1.83;;
54515;SDS011;40422;45.892;4.738;2023-04-03T14:30:29;3.22;;;1.70;;
54515;SDS011;40422;45.892;4.738;2023-04-03T14:32:56;4.70;;;1.90;;
54515;SDS011;40422;45.892;4.738;2023-04-03T14:35:23;3.42;;;1.60;;
54515;SDS011;40422;45.892;4.738;2023-04-03T14:37:49;4.40;;;2.03;;
54515;SDS011;40422;45.892;4.738;2023-04-03T14:40:18;5.22;;;1.90;;
54515;SDS011;40422;45.892;4.738;2023-04-03T14:42:49;2.88;;;1.50;;
54515;SDS011;40422;45.892;4.738;2023-04-03T14:45:15;3.97;;;1.75;;
54515;SDS011;40422;45.892;4.738;2023-04-03T14:47:45;5.70;;;2.17;;
54515;SDS011;40422;45.892;4.738;2023-04-03T14:50:19;3.00;;;1.70;;
54515;SDS011;40422;45.892;4.738;2023-04-03T14:52:50;4.20;;;2.25;;
54515;SDS011;40422;45.892;4.738;2023-04-03T14:55:19;5.32;;;2.10;;
54515;SDS011;40422;45.892;4.738;2023-04-03T14:57:46;4.43;;;2.10;;
54515;SDS011;40422;45.892;4.738;2023-04-03T15:00:14;2.80;;;1.67;;
54515;SDS011;40422;45.892;4.738;2023-04-03T15:02:42;3.83;;;1.65;;
54515;SDS011;40422;45.892;4.738;2023-04-03T15:05:08;4.15;;;1.70;;
54515;SDS011;40422;45.892;4.738;2023-04-03T15:07:36;4.25;;;1.85;;
54515;SDS011;40422;45.892;4.738;2023-04-03T15:10:15;3.28;;;1.70;;
54515;SDS011;40422;45.892;4.738;2023-04-03T15:12:46;3.83;;;1.80;;
54515;SDS011;40422;45.892;4.738;2023-04-03T15:15:13;3.15;;;1.80;;
54515;SDS011;40422;45.892;4.738;2023-04-03T15:17:39;3.65;;;1.80;;
54515;SDS011;40422;45.892;4.738;2023-04-03T15:20:11;2.90;;;1.45;;
54515;SDS011;40422;45.892;4.738;2023-04-03T15:22:41;3.45;;;1.60;;
54515;SDS011;40422;45.892;4.738;2023-04-03T15:25:07;2.17;;;1.52;;
54515;SDS011;40422;45.892;4.738;2023-04-03T15:27:33;3.03;;;1.70;;
54515;SDS011;40422;45.892;4.738;2023-04-03T15:29:59;6.43;;;1.75;;
54515;SDS011;40422;45.892;4.738;2023-04-03T15:32:25;4.13;;;1.80;;
54515;SDS011;40422;45.892;4.738;2023-04-03T15:34:51;3.83;;;1.60;;
54515;SDS011;40422;45.892;4.738;2023-04-03T15:37:18;3.38;;;1.52;;
54515;SDS011;40422;45.892;4.738;2023-04-03T15:39:44;3.72;;;1.60;;
54515;SDS011;40422;45.892;4.738;2023-04-03T15:42:09;3.92;;;1.52;;
54515;SDS011;40422;45.892;4.738;2023-04-03T15:44:37;4.43;;;1.92;;
54515;SDS011;40422;45.892;4.738;2023-04-03T15:47:02;2.53;;;1.63;;
54515;SDS011;40422;45.892;4.738;2023-04-03T15:49:28;3.17;;;1.40;;
54515;SDS011;40422;45.892;4.738;2023-04-03T15:51:55;2.65;;;1.48;;
54515;SDS011;40422;45.892;4.738;2023-04-03T15:54:20;3.10;;;1.40;;
54515;SDS011;40422;45.892;4.738;2023-04-03T15:56:46;2.50;;;1.60;;
54515;SDS011;40422;45.892;4.738;2023-04-03T15:59:11;3.15;;;1.60;;
54515;SDS011;40422;45.892;4.738;2023-04-03T16:01:37;4.90;;;1.70;;
54515;SDS011;40422;45.892;4.738;2023-04-03T16:04:04;3.45;;;1.65;;
54515;SDS011;40422;45.892;4.738;2023-04-03T16:06:32;2.58;;;1.50;;
54515;SDS011;40422;45.892;4.738;2023-04-03T16:08:58;2.35;;;1.40;;
54515;SDS011;40422;45.892;4.738;2023-04-03T16:11:25;3.67;;;1.70;;
54515;SDS011;40422;45.892;4.738;2023-04-03T16:13:51;4.63;;;2.00;;
54515;SDS011;40422;45.892;4.738;2023-04-03T16:16:17;3.53;;;1.80;;
54515;SDS011;40422;45.892;4.738;2023-04-03T16:18:42;3.10;;;1.50;;
54515;SDS011;40422;45.892;4.738;2023-04-03T16:21:08;3.60;;;1.83;;
54515;SDS011;40422;45.892;4.738;2023-04-03T16:23:34;3.67;;;2.03;;
54515;SDS011;40422;45.892;4.738;2023-04-03T16:26:00;4.65;;;1.98;;
54515;SDS011;40422;45.892;4.738;2023-04-03T16:28:26;3.97;;;1.60;;
54515;SDS011;40422;45.892;4.738;2023-04-03T16:30:52;4.90;;;1.90;;
54515;SDS011;40422;45.892;4.738;2023-04-03T16:33:17;3.67;;;1.83;;
54515;SDS011;40422;45.892;4.738;2023-04-03T16:35:46;3.30;;;1.75;;
54515;SDS011;40422;45.892;4.738;2023-04-03T16:38:13;2.83;;;1.65;;
54515;SDS011;40422;45.892;4.738;2023-04-03T16:40:39;6.47;;;2.08;;
54515;SDS011;40422;45.892;4.738;2023-04-03T16:43:05;3.17;;;1.60;;
54515;SDS011;40422;45.892;4.738;2023-04-03T16:45:31;2.97;;;1.70;;
54515;SDS011;40422;45.892;4.738;2023-04-03T16:47:56;3.47;;;1.80;;
54515;SDS011;40422;45.892;4.738;2023-04-03T16:50:22;3.70;;;1.90;;
54515;SDS011;40422;45.892;4.738;2023-04-03T16:52:48;3.35;;;1.70;;
54515;SDS011;40422;45.892;4.738;2023-04-03T16:55:13;3.88;;;1.55;;
54515;SDS011;40422;45.892;4.738;2023-04-03T16:57:39;2.60;;;1.60;;
54515;SDS011;40422;45.892;4.738;2023-04-03T17:00:05;2.92;;;1.83;;
54515;SDS011;40422;45.892;4.738;2023-04-03T17:02:32;3.10;;;1.60;;
54515;SDS011;40422;45.892;4.738;2023-04-03T17:04:58;4.18;;;1.80;;
54515;SDS011;40422;45.892;4.738;2023-04-03T17:07:24;3.20;;;1.63;;
54515;SDS011;40422;45.892;4.738;2023-04-03T17:09:51;3.53;;;1.70;;
54515;SDS011;40422;45.892;4.738;2023-04-03T17:12:18;3.72;;;1.98;;
54515;SDS011;40422;45.892;4.738;2023-04-03T17:14:44;3.45;;;1.60;;
54515;SDS011;40422;45.892;4.738;2023-04-03T17:17:11;3.85;;;1.83;;
54515;SDS011;40422;45.892;4.738;2023-04-03T17:19:38;5.50;;;1.95;;
54515;SDS011;40422;45.892;4.738;2023-04-03T17:22:06;3.47;;;1.92;;
54515;SDS011;40422;45.892;4.738;2023-04-03T17:24:32;4.90;;;1.90;;
54515;SDS011;40422;45.892;4.738;2023-04-03T17:26:58;3.63;;;1.80;;
54515;SDS011;40422;45.892;4.738;2023-04-03T17:29:24;4.15;;;1.90;;
54515;SDS011;40422;45.892;4.738;2023-04-03T17:31:49;3.50;;;1.80;;
54515;SDS011;40422;45.892;4.738;2023-04-03T17:34:15;4.25;;;1.88;;
54515;SDS011;40422;45.892;4.738;2023-04-03T17:36:41;2.92;;;1.60;;
54515;SDS011;40422;45.892;4.738;2023-04-03T17:39:06;3.08;;;1.80;;
54515;SDS011;40422;45.892;4.738;2023-04-03T17:41:32;3.28;;;1.80;;
54515;SDS011;40422;45.892;4.738;2023-04-03T17:43:58;4.18;;;2.10;;
54515;SDS011;40422;45.892;4.738;2023-04-03T17:46:24;3.92;;;2.00;;
54515;SDS011;40422;45.892;4.738;2023-04-03T17:48:51;4.90;;;2.20;;
54515;SDS011;40422;45.892;4.738;2023-04-03T17:51:18;4.30;;;2.08;;
54515;SDS011;40422;45.892;4.738;2023-04-03T17:53:46;3.55;;;1.90;;
54515;SDS011;40422;45.892;4.738;2023-04-03T17:56:13;3.60;;;1.98;;
54515;SDS011;40422;45.892;4.738;2023-04-03T17:58:40;5.85;;;2.20;;
54515;SDS011;40422;45.892;4.738;2023-04-03T18:03:42;5.05;;;2.40;;
54515;SDS011;40422;45.892;4.738;2023-04-03T18:06:10;3.30;;;2.10;;
54515;SDS011;40422;45.892;4.738;2023-04-03T18:08:40;5.18;;;2.45;;
54515;SDS011;40422;45.892;4.738;2023-04-03T18:11:08;5.10;;;2.38;;
54515;SDS011;40422;45.892;4.738;2023-04-03T18:13:34;4.68;;;1.90;;
54515;SDS011;40422;45.892;4.738;2023-04-03T18:16:02;5.03;;;2.50;;
54515;SDS011;40422;45.892;4.738;2023-04-03T18:18:29;3.85;;;2.15;;
54515;SDS011;40422;45.892;4.738;2023-04-03T18:20:54;3.78;;;2.00;;
54515;SDS011;40422;45.892;4.738;2023-04-03T18:23:20;5.03;;;2.40;;
54515;SDS011;40422;45.892;4.738;2023-04-03T18:25:46;5.47;;;2.28;;
54515;SDS011;40422;45.892;4.738;2023-04-03T18:28:11;4.15;;;2.30;;
54515;SDS011;40422;45.892;4.738;2023-04-03T18:30:37;6.63;;;2.60;;
54515;SDS011;40422;45.892;4.738;2023-04-03T18:33:03;5.13;;;2.60;;
54515;SDS011;40422;45.892;4.738;2023-04-03T18:35:29;5.50;;;2.10;;
54515;SDS011;40422;45.892;4.738;2023-04-03T18:37:55;5.40;;;2.33;;
54515;SDS011;40422;45.892;4.738;2023-04-03T18:40:20;5.35;;;2.47;;
54515;SDS011;40422;45.892;4.738;2023-04-03T18:42:46;5.85;;;2.58;;
54515;SDS011;40422;45.892;4.738;2023-04-03T18:45:12;4.55;;;2.60;;
54515;SDS011;40422;45.892;4.738;2023-04-03T18:47:41;5.65;;;2.75;;
54515;SDS011;40422;45.892;4.738;2023-04-03T18:50:07;4.85;;;2.60;;
54515;SDS011;40422;45.892;4.738;2023-04-03T18:52:33;4.93;;;2.55;;
54515;SDS011;40422;45.892;4.738;2023-04-03T18:54:59;8.52;;;2.65;;
54515;SDS011;40422;45.892;4.738;2023-04-03T18:57:25;6.50;;;2.78;;
54515;SDS011;40422;45.892;4.738;2023-04-03T18:59:50;6.13;;;2.80;;
54515;SDS011;40422;45.892;4.738;2023-04-03T19:02:16;6.35;;;2.40;;
54515;SDS011;40422;45.892;4.738;2023-04-03T19:04:45;4.25;;;2.47;;
54515;SDS011;40422;45.892;4.738;2023-04-03T19:07:11;5.30;;;2.58;;
54515;SDS011;40422;45.892;4.738;2023-04-03T19:09:36;4.45;;;2.20;;
54515;SDS011;40422;45.892;4.738;2023-04-03T19:12:03;4.88;;;2.35;;
54515;SDS011;40422;45.892;4.738;2023-04-03T19:14:30;7.20;;;2.83;;
54515;SDS011;40422;45.892;4.738;2023-04-03T19:16:55;5.07;;;2.58;;
54515;SDS011;40422;45.892;4.738;2023-04-03T19:19:21;4.53;;;2.45;;
54515;SDS011;40422;45.892;4.738;2023-04-03T19:21:47;5.88;;;2.63;;
54515;SDS011;40422;45.892;4.738;2023-04-03T19:24:12;7.10;;;2.63;;
54515;SDS011;40422;45.892;4.738;2023-04-03T19:26:39;5.15;;;2.30;;
54515;SDS011;40422;45.892;4.738;2023-04-03T19:29:05;4.43;;;2.38;;
54515;SDS011;40422;45.892;4.738;2023-04-03T19:31:31;5.85;;;2.72;;
54515;SDS011;40422;45.892;4.738;2023-04-03T19:33:57;5.10;;;2.38;;
54515;SDS011;40422;45.892;4.738;2023-04-03T19:36:24;7.25;;;2.60;;